Time;durP1;ratioP1;P1;durP2;ratioP2;P2;SDS_P1;SDS_P2;PMS_P1;PMS_P2;Temp;Humidity;BMP_temperature;BMP_pressure;BME280_temperature;BME280_humidity;BME280_pressure;Samples;Min_cycle;Max_cycle;Signal;HPM_P1;HPM_P2
2024/01/14 00:02:06;;;;;;;17.53;15.87;;;;;;;-4.87;82.60;92593.66;5048940;28;20256;-73
2024/01/14 00:04:32;;;;;;;23.67;17.77;;;;;;;-4.81;83.33;92587.03;5052792;28;20197;-73
2024/01/14 00:06:57;;;;;;;22.03;18.73;;;;;;;-4.94;83.74;92597.94;5049737;28;20221;-73
2024/01/14 00:09:22;;;;;;;19.53;17.43;;;;;;;-4.82;83.20;92600.75;5051387;28;20174;-73
2024/01/14 00:11:48;;;;;;;20.87;16.43;;;;;;;-4.81;83.70;92602.31;5046140;28;20297;-73
2024/01/14 00:14:14;;;;;;;20.90;17.37;;;;;;;-4.73;83.19;92602.94;5045563;28;20190;-73
2024/01/14 00:16:39;;;;;;;19.90;16.70;;;;;;;-4.86;82.94;92581.72;5052276;28;20181;-73
2024/01/14 00:19:05;;;;;;;18.57;15.30;;;;;;;-4.85;82.58;92585.81;5051251;28;20186;-73
2024/01/14 00:21:33;;;;;;;17.27;15.53;;;;;;;-4.85;82.32;92596.00;5035184;28;21179;-73
2024/01/14 00:23:59;;;;;;;18.63;16.13;;;;;;;-5.06;83.23;92556.16;5050652;28;20193;-74
2024/01/14 00:26:27;;;;;;;16.33;14.60;;;;;;;-4.87;82.93;92587.78;5052061;28;20182;-74
2024/01/14 00:28:57;;;;;;;17.17;15.37;;;;;;;-4.90;82.77;92566.03;5050702;28;20209;-74
2024/01/14 00:31:23;;;;;;;17.33;15.20;;;;;;;-4.96;82.78;92552.31;5043348;28;20207;-74
2024/01/14 00:33:49;;;;;;;20.93;17.67;;;;;;;-4.83;82.54;92571.16;5039954;28;20234;-74
2024/01/14 00:36:16;;;;;;;18.10;16.07;;;;;;;-4.81;82.15;92580.19;5038145;28;20225;-74
2024/01/14 00:38:41;;;;;;;19.67;16.23;;;;;;;-4.78;82.04;92571.38;5050249;28;20249;-74
2024/01/14 00:41:07;;;;;;;17.73;15.83;;;;;;;-5.06;82.70;92564.56;5051792;28;20186;-74
2024/01/14 00:43:33;;;;;;;19.17;16.37;;;;;;;-5.16;82.97;92563.31;5051569;28;20217;-74
2024/01/14 00:45:58;;;;;;;17.97;15.07;;;;;;;-4.93;82.82;92568.94;5050632;28;20208;-74
2024/01/14 00:48:24;;;;;;;19.13;16.10;;;;;;;-5.05;83.11;92571.25;5051166;28;20230;-74
2024/01/14 00:50:49;;;;;;;23.17;17.53;;;;;;;-5.26;83.30;92553.47;5051448;28;20304;-73
2024/01/14 00:53:14;;;;;;;19.17;17.17;;;;;;;-5.19;83.63;92567.03;5050383;28;20230;-74
2024/01/14 00:55:40;;;;;;;15.40;13.77;;;;;;;-5.23;83.65;92573.47;5041649;28;20198;-74
2024/01/14 00:58:05;;;;;;;17.60;15.10;;;;;;;-5.16;83.52;92568.41;5050333;28;20248;-74
2024/01/14 01:00:31;;;;;;;15.77;14.47;;;;;;;-5.12;83.21;92565.31;5049952;28;20194;-74
2024/01/14 01:02:56;;;;;;;14.27;13.10;;;;;;;-5.08;83.01;92566.53;5048395;28;20229;-75
2024/01/14 01:05:22;;;;;;;15.87;14.53;;;;;;;-5.01;82.57;92556.38;5044573;28;20247;-74
2024/01/14 01:07:47;;;;;;;15.80;14.37;;;;;;;-5.22;83.35;92552.16;5048429;28;20290;-74
2024/01/14 01:10:13;;;;;;;15.30;13.80;;;;;;;-5.15;84.02;92552.97;5044405;28;20185;-74
2024/01/14 01:12:39;;;;;;;15.83;14.40;;;;;;;-5.12;83.86;92552.59;5049846;28;20229;-74
2024/01/14 01:15:08;;;;;;;15.50;14.07;;;;;;;-4.99;83.12;92549.34;5051091;28;20178;-74
2024/01/14 01:17:34;;;;;;;17.17;15.47;;;;;;;-5.02;83.18;92547.19;5046388;28;20320;-74
2024/01/14 01:20:00;;;;;;;17.47;15.67;;;;;;;-4.98;82.78;92540.75;5050574;28;20182;-74
2024/01/14 01:22:25;;;;;;;18.50;16.67;;;;;;;-5.08;82.88;92538.53;5049829;28;20241;-74
2024/01/14 01:24:51;;;;;;;19.43;16.20;;;;;;;-5.05;83.25;92540.72;5050408;28;20190;-74
2024/01/14 01:27:16;;;;;;;18.27;16.43;;;;;;;-5.05;83.25;92528.00;5040042;28;20277;-73
2024/01/14 01:29:42;;;;;;;16.63;14.73;;;;;;;-5.18;83.57;92519.47;5050321;28;20178;-74
2024/01/14 01:32:08;;;;;;;17.33;15.27;;;;;;;-5.08;83.54;92530.13;5049250;28;20236;-74
2024/01/14 01:34:33;;;;;;;16.70;15.27;;;;;;;-5.08;83.00;92522.47;5049629;28;20186;-74
2024/01/14 01:36:58;;;;;;;17.13;15.53;;;;;;;-5.12;83.00;92519.50;5047201;28;20253;-74
2024/01/14 01:39:24;;;;;;;17.40;15.30;;;;;;;-5.16;83.49;92508.16;5049625;28;20194;-74
2024/01/14 01:41:51;;;;;;;17.77;16.07;;;;;;;-5.00;83.24;92518.00;5038105;28;20223;-74
2024/01/14 01:44:16;;;;;;;21.17;16.70;;;;;;;-5.14;83.27;92520.69;5048875;28;20175;-74
2024/01/14 01:46:42;;;;;;;21.53;17.63;;;;;;;-5.24;83.89;92513.38;5050408;28;20189;-74
2024/01/14 01:49:08;;;;;;;25.47;17.90;;;;;;;-5.25;84.00;92513.56;5049128;28;20177;-73
2024/01/14 01:51:35;;;;;;;16.80;15.37;;;;;;;-5.08;83.12;92515.63;5048005;28;20206;-74
2024/01/14 01:54:01;;;;;;;15.33;13.83;;;;;;;-5.15;83.21;92512.25;5050453;28;20219;-73
2024/01/14 01:56:26;;;;;;;15.10;13.57;;;;;;;-5.27;83.29;92497.72;5050046;28;20186;-74
2024/01/14 01:58:52;;;;;;;17.13;15.43;;;;;;;-5.02;83.06;92504.72;5044036;28;20194;-74
2024/01/14 02:01:21;;;;;;;16.53;15.23;;;;;;;-5.06;83.16;92506.03;5050635;28;20186;-74
2024/01/14 02:03:48;;;;;;;17.53;15.87;;;;;;;-5.18;82.83;92492.28;5049210;28;20221;-74
2024/01/14 02:06:15;;;;;;;15.30;13.77;;;;;;;-5.20;83.27;92493.47;5050236;28;20241;-74
2024/01/14 02:08:41;;;;;;;15.40;14.03;;;;;;;-5.12;82.86;92486.44;5049785;28;20214;-74
2024/01/14 02:11:06;;;;;;;15.93;14.53;;;;;;;-5.25;83.10;92481.31;5050204;28;20186;-74
2024/01/14 02:13:32;;;;;;;14.90;13.63;;;;;;;-5.29;83.42;92476.75;5048474;28;20213;-74
2024/01/14 02:15:57;;;;;;;15.70;14.07;;;;;;;-5.20;83.82;92480.75;5040437;28;20189;-74
2024/01/14 02:18:22;;;;;;;14.30;12.97;;;;;;;-5.31;83.98;92494.75;5048087;28;20224;-74
2024/01/14 02:20:48;;;;;;;13.53;12.37;;;;;;;-5.22;83.02;92488.56;5048715;28;20241;-73
2024/01/14 02:23:18;;;;;;;15.17;13.90;;;;;;;-5.16;82.70;92499.72;5048658;28;20242;-72
2024/01/14 02:25:44;;;;;;;13.93;12.67;;;;;;;-5.32;83.28;92483.00;5041609;28;20182;-74
2024/01/14 02:28:09;;;;;;;12.17;11.17;;;;;;;-5.36;83.15;92492.00;5049598;28;20218;-74
2024/01/14 02:30:36;;;;;;;12.53;11.73;;;;;;;-5.47;82.98;92469.63;5049243;28;20170;-74
2024/01/14 02:33:02;;;;;;;12.77;11.70;;;;;;;-5.41;82.64;92471.41;5048261;28;20213;-74
2024/01/14 02:35:27;;;;;;;12.73;11.83;;;;;;;-5.51;82.79;92465.09;5050427;28;20750;-74
2024/01/14 02:37:54;;;;;;;12.53;11.60;;;;;;;-5.24;82.44;92489.69;5048152;28;20233;-74
2024/01/14 02:40:20;;;;;;;11.77;10.87;;;;;;;-5.25;82.39;92494.03;5047707;28;20182;-73
2024/01/14 02:42:45;;;;;;;11.73;10.87;;;;;;;-5.29;82.09;92482.63;5049112;28;20239;-74
2024/01/14 02:45:11;;;;;;;10.17;9.57;;;;;;;-5.40;82.51;92472.22;5049128;28;20193;-74
2024/01/14 02:47:36;;;;;;;12.37;11.17;;;;;;;-5.35;83.55;92493.56;5033449;28;20225;-74
2024/01/14 02:50:01;;;;;;;11.17;10.13;;;;;;;-5.42;83.13;92469.88;5042760;28;20198;-74
2024/01/14 02:52:27;;;;;;;11.90;11.20;;;;;;;-5.23;82.71;92474.25;5030130;28;20250;-74
2024/01/14 02:54:52;;;;;;;12.17;11.43;;;;;;;-5.31;83.68;92468.53;5050000;28;20209;-74
2024/01/14 02:57:17;;;;;;;11.37;10.67;;;;;;;-5.26;83.29;92474.63;5048162;28;20213;-73
2024/01/14 02:59:43;;;;;;;10.97;10.37;;;;;;;-5.30;82.67;92455.63;5048527;28;20201;-74
2024/01/14 03:02:08;;;;;;;12.10;11.10;;;;;;;-5.25;82.74;92476.22;5038279;28;20225;-74
2024/01/14 03:04:33;;;;;;;13.03;12.17;;;;;;;-5.31;83.42;92471.84;5040248;28;20193;-74
2024/01/14 03:06:59;;;;;;;17.53;13.27;;;;;;;-5.42;83.33;92439.34;5044809;28;20225;-74
2024/01/14 03:09:24;;;;;;;13.73;12.57;;;;;;;-5.50;82.68;92421.69;5046893;28;20166;-74
2024/01/14 03:11:49;;;;;;;12.80;12.00;;;;;;;-5.36;82.64;92471.66;5046254;28;20221;-74
2024/01/14 03:14:15;;;;;;;12.37;11.53;;;;;;;-5.28;82.49;92463.09;5049206;28;20208;-73
2024/01/14 03:16:40;;;;;;;11.70;11.07;;;;;;;-5.40;82.59;92455.19;5048369;28;20163;-74
2024/01/14 03:19:05;;;;;;;13.57;12.77;;;;;;;-5.20;83.11;92465.47;5046625;28;20221;-73
2024/01/14 03:21:31;;;;;;;12.33;11.37;;;;;;;-5.18;83.58;92463.50;5041333;28;20229;-75
2024/01/14 03:23:56;;;;;;;12.60;11.70;;;;;;;-5.20;82.88;92461.16;5043187;28;20205;-74
2024/01/14 03:26:22;;;;;;;12.27;11.57;;;;;;;-5.36;83.46;92428.41;5048643;28;20182;-74
2024/01/14 03:28:47;;;;;;;11.73;11.03;;;;;;;-5.40;83.67;92434.84;5041663;28;20209;-74
2024/01/14 03:31:15;;;;;;;13.30;12.50;;;;;;;-5.28;83.95;92453.69;5045097;28;20273;-74
2024/01/14 03:33:41;;;;;;;13.87;12.80;;;;;;;-5.41;83.65;92440.91;5047558;28;20229;-74
2024/01/14 03:36:07;;;;;;;11.97;11.03;;;;;;;-5.40;82.97;92429.75;5046133;28;20174;-74
2024/01/14 03:38:33;;;;;;;16.73;14.03;;;;;;;-5.32;83.13;92434.69;5044285;28;20214;-74
2024/01/14 03:40:58;;;;;;;12.73;11.90;;;;;;;-5.17;82.76;92455.69;5045329;28;20194;-74
2024/01/14 03:43:23;;;;;;;12.83;11.93;;;;;;;-5.06;82.22;92465.34;5044232;28;20298;-74
2024/01/14 03:45:49;;;;;;;16.50;13.17;;;;;;;-5.19;82.10;92447.47;5046855;28;20186;-74
2024/01/14 03:48:14;;;;;;;15.60;14.23;;;;;;;-4.98;82.61;92464.41;5041402;28;20216;-74
2024/01/14 03:50:39;;;;;;;14.47;13.00;;;;;;;-5.27;82.32;92429.03;5042213;28;20190;-74
2024/01/14 03:53:05;;;;;;;12.20;11.27;;;;;;;-5.11;82.16;92470.22;5048447;28;20253;-74
2024/01/14 03:55:31;;;;;;;12.10;11.03;;;;;;;-5.11;81.93;92466.88;5049042;28;20194;-74
2024/01/14 03:57:58;;;;;;;14.63;13.40;;;;;;;-5.31;81.75;92454.06;5046571;28;20249;-74
2024/01/14 04:00:23;;;;;;;14.10;12.77;;;;;;;-5.15;81.74;92483.47;5047559;28;20186;-74
2024/01/14 04:02:49;;;;;;;14.53;13.33;;;;;;;-5.24;82.30;92482.06;5040961;28;20277;-74
2024/01/14 04:05:14;;;;;;;12.50;11.63;;;;;;;-5.44;82.08;92469.25;5034856;28;20212;-74
2024/01/14 04:07:39;;;;;;;12.70;11.73;;;;;;;-5.51;82.70;92483.66;5041142;28;20306;-74
2024/01/14 04:10:05;;;;;;;12.57;11.53;;;;;;;-5.37;82.36;92505.66;5043304;28;20178;-74
2024/01/14 04:12:30;;;;;;;13.53;12.70;;;;;;;-5.35;82.51;92492.75;5036760;28;20229;-74
2024/01/14 04:14:55;;;;;;;12.10;11.33;;;;;;;-5.47;82.70;92481.53;5046829;28;20244;-74
2024/01/14 04:17:21;;;;;;;13.27;12.37;;;;;;;-5.46;83.66;92473.72;5048257;28;20222;-73
2024/01/14 04:19:46;;;;;;;12.00;11.10;;;;;;;-5.47;84.28;92464.53;5044502;28;20197;-74
2024/01/14 04:22:11;;;;;;;12.40;11.27;;;;;;;-5.35;83.70;92469.88;5046250;28;20238;-74
2024/01/14 04:24:37;;;;;;;15.47;14.03;;;;;;;-5.44;82.69;92474.34;5037234;28;20269;-74
2024/01/14 04:27:02;;;;;;;18.23;16.40;;;;;;;-5.35;82.58;92467.31;5037891;28;20233;-74
2024/01/14 04:29:28;;;;;;;13.60;12.50;;;;;;;-5.47;82.57;92459.47;5036731;28;20186;-74
2024/01/14 04:31:53;;;;;;;14.47;13.17;;;;;;;-5.33;82.93;92473.81;5039237;28;20233;-74
2024/01/14 04:34:18;;;;;;;14.97;13.40;;;;;;;-5.28;83.30;92456.25;5044352;28;20210;-73
2024/01/14 04:36:44;;;;;;;15.50;14.10;;;;;;;-5.34;82.44;92456.22;5037752;28;20181;-74
2024/01/14 04:39:10;;;;;;;16.17;14.30;;;;;;;-5.65;83.45;92436.25;5038182;28;20206;-74
2024/01/14 04:41:35;;;;;;;15.73;14.53;;;;;;;-5.51;82.75;92452.38;5048008;28;20192;-73
2024/01/14 04:44:01;;;;;;;14.23;12.43;;;;;;;-5.86;83.06;92408.41;5043763;28;20178;-75
2024/01/14 04:46:26;;;;;;;13.83;12.63;;;;;;;-5.46;82.95;92467.84;5049516;28;20202;-74
2024/01/14 04:48:51;;;;;;;13.60;12.50;;;;;;;-5.56;82.68;92445.31;5051772;28;20181;-74
2024/01/14 04:51:18;;;;;;;14.10;13.00;;;;;;;-5.43;82.21;92460.63;5044957;28;20183;-74
2024/01/14 04:53:44;;;;;;;13.73;12.43;;;;;;;-5.52;82.52;92466.84;5043711;28;20214;-74
2024/01/14 04:56:10;;;;;;;12.43;11.37;;;;;;;-5.40;82.88;92462.81;5051942;28;20193;-74
2024/01/14 04:58:36;;;;;;;14.10;13.00;;;;;;;-5.35;82.34;92469.88;5044858;28;20230;-74
2024/01/14 05:01:02;;;;;;;12.70;11.57;;;;;;;-5.42;82.89;92467.31;5037551;28;20210;-73
2024/01/14 05:03:27;;;;;;;12.37;11.37;;;;;;;-5.64;83.48;92435.31;5050789;28;20234;-74
2024/01/14 05:05:53;;;;;;;13.43;12.37;;;;;;;-5.48;83.28;92452.78;5051260;28;20224;-74
2024/01/14 05:08:18;;;;;;;13.10;12.20;;;;;;;-5.43;82.39;92475.91;5046262;28;20289;-74
2024/01/14 05:10:43;;;;;;;13.60;12.67;;;;;;;-5.56;83.01;92485.22;5051322;28;20186;-74
2024/01/14 05:13:09;;;;;;;17.43;15.83;;;;;;;-5.49;82.52;92475.84;5049681;28;20226;-74
2024/01/14 05:15:34;;;;;;;15.20;14.00;;;;;;;-5.47;83.32;92473.91;5051236;28;20186;-74
2024/01/14 05:17:59;;;;;;;15.23;14.00;;;;;;;-5.47;82.53;92459.47;5050808;28;20225;-74
2024/01/14 05:20:25;;;;;;;15.17;13.97;;;;;;;-5.70;82.91;92433.50;5046315;28;20194;-73
2024/01/14 05:22:50;;;;;;;13.33;12.07;;;;;;;-5.56;83.02;92445.31;5043056;28;20257;-74
2024/01/14 05:25:15;;;;;;;12.50;11.70;;;;;;;-5.38;82.52;92460.88;5051466;28;20186;-74
2024/01/14 05:27:40;;;;;;;12.60;11.80;;;;;;;-5.47;82.64;92449.28;5042032;28;20240;-74
2024/01/14 05:30:06;;;;;;;13.17;12.20;;;;;;;-5.39;82.42;92446.59;5049901;28;20668;-74
2024/01/14 05:32:32;;;;;;;12.33;11.33;;;;;;;-5.52;83.00;92441.44;5042567;28;20274;-74
2024/01/14 05:34:57;;;;;;;12.20;11.30;;;;;;;-5.73;83.39;92436.41;5045993;28;20901;-74
2024/01/14 05:37:23;;;;;;;12.10;11.07;;;;;;;-5.51;82.56;92445.53;5038921;28;20238;-74
2024/01/14 05:39:48;;;;;;;12.90;11.97;;;;;;;-5.36;81.99;92460.69;5048303;28;20189;-74
2024/01/14 05:42:14;;;;;;;13.97;12.80;;;;;;;-5.49;82.25;92441.06;5045073;28;20268;-74
2024/01/14 05:44:39;;;;;;;12.60;11.63;;;;;;;-5.62;83.17;92461.28;5043864;28;20182;-75
2024/01/14 05:47:04;;;;;;;13.63;12.53;;;;;;;-5.52;83.80;92459.22;5049079;28;20285;-74
2024/01/14 05:49:30;;;;;;;15.87;14.27;;;;;;;-5.39;82.61;92453.44;5042833;28;20174;-75
2024/01/14 05:51:55;;;;;;;14.20;13.10;;;;;;;-5.35;82.27;92460.50;5036030;28;20230;-74
2024/01/14 05:54:20;;;;;;;14.70;13.43;;;;;;;-5.57;82.94;92443.75;5043008;28;20959;-74
2024/01/14 05:56:46;;;;;;;13.83;12.83;;;;;;;-5.54;83.52;92461.16;5045042;28;20233;-74
2024/01/14 05:59:11;;;;;;;14.43;13.03;;;;;;;-5.73;82.99;92407.66;5050033;28;20241;-74
2024/01/14 06:01:37;;;;;;;15.43;13.70;;;;;;;-5.33;82.57;92465.41;5042102;28;20191;-74
2024/01/14 06:04:02;;;;;;;14.03;12.43;;;;;;;-5.30;83.15;92463.28;5048904;28;20197;-74
2024/01/14 06:06:27;;;;;;;14.23;12.73;;;;;;;-5.23;82.29;92471.72;5039064;28;20202;-77
2024/01/14 06:08:53;;;;;;;14.07;13.07;;;;;;;-5.36;82.08;92441.13;5040044;28;20301;-74
2024/01/14 06:11:18;;;;;;;15.17;13.67;;;;;;;-5.41;82.69;92456.16;5032761;28;20195;-74
2024/01/14 06:13:44;;;;;;;16.27;14.87;;;;;;;-5.28;83.03;92451.16;5035847;28;20274;-74
2024/01/14 06:16:10;;;;;;;12.40;11.57;;;;;;;-5.01;82.70;92447.75;5045034;28;20190;-74
2024/01/14 06:18:36;;;;;;;12.73;11.53;;;;;;;-5.09;82.26;92447.13;5049924;28;20214;-75
2024/01/14 06:21:02;;;;;;;14.07;12.97;;;;;;;-4.97;82.54;92438.78;5049265;28;20218;-74
2024/01/14 06:23:28;;;;;;;12.40;11.53;;;;;;;-4.93;82.18;92446.03;5045262;28;20234;-73
2024/01/14 06:25:54;;;;;;;11.90;11.10;;;;;;;-4.84;81.77;92444.88;5047646;28;20772;-74
2024/01/14 06:28:20;;;;;;;14.70;13.57;;;;;;;-4.82;80.61;92432.75;5034975;28;20222;-74
2024/01/14 06:30:46;;;;;;;12.33;11.53;;;;;;;-4.76;80.88;92447.25;5046110;28;20251;-74
2024/01/14 06:33:12;;;;;;;14.63;13.53;;;;;;;-4.60;81.29;92451.97;5051294;28;20222;-75
2024/01/14 06:35:37;;;;;;;13.53;12.47;;;;;;;-4.69;81.06;92440.41;5047980;28;20197;-74
2024/01/14 06:38:03;;;;;;;14.53;13.27;;;;;;;-4.36;80.28;92470.09;5043070;28;20227;-74
2024/01/14 06:40:28;;;;;;;16.03;14.60;;;;;;;-4.33;80.47;92454.41;5036818;28;20191;-74
2024/01/14 06:42:53;;;;;;;20.00;17.57;;;;;;;-4.06;79.58;92460.34;5048224;28;20239;-74
2024/01/14 06:45:19;;;;;;;20.97;16.83;;;;;;;-3.90;79.12;92453.06;5047564;28;20216;-74
2024/01/14 06:47:44;;;;;;;22.03;17.30;;;;;;;-4.07;79.29;92430.72;5045625;28;20268;-74
2024/01/14 06:50:10;;;;;;;21.97;16.93;;;;;;;-3.93;78.94;92422.09;5043423;28;20277;-74
2024/01/14 06:52:37;;;;;;;17.70;15.37;;;;;;;-3.99;79.47;92392.28;5047826;28;20233;-76
2024/01/14 06:55:04;;;;;;;20.73;17.90;;;;;;;-3.78;79.39;92417.56;5047815;28;20633;-74
2024/01/14 06:57:31;;;;;;;19.53;16.77;;;;;;;-3.54;78.27;92434.81;5038238;28;20834;-79
2024/01/14 07:00:00;;;;;;;22.97;17.30;;;;;;;-3.68;78.82;92407.75;5047176;28;20194;-79
2024/01/14 07:02:26;;;;;;;20.87;18.07;;;;;;;-3.46;78.43;92437.16;5046674;28;20289;-82
2024/01/14 07:04:51;;;;;;;21.57;16.77;;;;;;;-3.55;78.91;92412.84;5047963;28;20181;-83
2024/01/14 07:07:16;;;;;;;26.20;18.37;;;;;;;-3.46;79.03;92429.50;5047547;28;20312;-83
2024/01/14 07:09:42;;;;;;;29.03;19.93;;;;;;;-3.28;78.45;92434.75;5032578;28;20195;-84
2024/01/14 07:12:08;;;;;;;28.53;21.43;;;;;;;-3.29;79.02;92428.09;5042866;28;20221;-78
2024/01/14 07:14:33;;;;;;;38.67;21.73;;;;;;;-3.22;78.01;92433.94;5042849;28;20253;-84
2024/01/14 07:16:59;;;;;;;21.17;18.70;;;;;;;-3.22;76.76;92439.06;5039352;28;20282;-86
2024/01/14 07:19:24;;;;;;;24.53;19.10;;;;;;;-3.04;76.22;92421.34;5037984;28;20171;-88
2024/01/14 07:21:49;;;;;;;33.40;20.93;;;;;;;-2.84;75.68;92427.16;5043462;28;20300;-84
2024/01/14 07:24:15;;;;;;;31.33;22.00;;;;;;;-2.63;75.17;92428.66;5042910;28;20182;-84
2024/01/14 07:26:40;;;;;;;40.13;22.50;;;;;;;-2.47;74.42;92423.84;5040760;28;20174;-80
2024/01/14 07:29:06;;;;;;;37.63;25.47;;;;;;;-2.55;74.96;92426.63;5039346;28;20197;-84
2024/01/14 07:31:31;;;;;;;31.87;22.50;;;;;;;-2.36;74.30;92428.28;5047767;28;20213;-80
2024/01/14 07:33:57;;;;;;;29.27;20.93;;;;;;;-2.54;73.74;92415.44;5045651;28;20178;-81
2024/01/14 07:36:23;;;;;;;29.53;20.53;;;;;;;-2.56;75.21;92452.38;5055358;28;20215;-81
2024/01/14 07:38:50;;;;;;;23.27;19.40;;;;;;;-2.48;74.00;92431.69;5045602;28;20226;-77
2024/01/14 07:41:16;;;;;;;27.10;19.97;;;;;;;-2.27;73.77;92456.94;5050210;28;20185;-77
2024/01/14 07:43:42;;;;;;;23.37;19.97;;;;;;;-2.36;73.62;92456.41;5055971;28;20248;-79
2024/01/14 07:46:08;;;;;;;19.37;16.60;;;;;;;-2.07;72.23;92453.28;5059501;28;20181;-79
2024/01/14 07:48:34;;;;;;;24.67;18.60;;;;;;;-2.31;73.38;92448.91;5050856;28;20231;-77
2024/01/14 07:51:00;;;;;;;25.30;18.93;;;;;;;-2.43;73.87;92432.63;5055430;28;20183;-76
2024/01/14 07:53:26;;;;;;;20.53;18.27;;;;;;;-2.11;73.06;92439.34;5052667;28;20236;-78
2024/01/14 07:55:52;;;;;;;26.27;18.37;;;;;;;-1.92;72.10;92432.53;5049823;28;20190;-77
2024/01/14 07:58:17;;;;;;;25.63;18.60;;;;;;;-1.94;71.71;92430.19;5057470;28;20236;-77
2024/01/14 08:00:44;;;;;;;26.80;21.37;;;;;;;-2.04;72.36;92424.72;5054777;28;20216;-73
2024/01/14 08:03:09;;;;;;;30.47;22.03;;;;;;;-2.06;73.01;92431.06;5052994;28;20221;-77
2024/01/14 08:05:38;;;;;;;24.53;18.93;;;;;;;-2.24;73.47;92436.09;5054340;28;20181;-80
2024/01/14 08:08:04;;;;;;;26.50;20.00;;;;;;;-2.05;73.70;92432.59;5046156;28;20222;-76
2024/01/14 08:10:30;;;;;;;27.03;22.33;;;;;;;-2.02;73.89;92422.75;5049354;28;20193;-81
2024/01/14 08:12:55;;;;;;;23.37;20.83;;;;;;;-2.27;74.67;92427.06;5053073;28;20248;-83
2024/01/14 08:15:21;;;;;;;33.03;21.27;;;;;;;-2.12;74.79;92412.19;5048741;28;20841;-80
2024/01/14 08:17:46;;;;;;;21.73;18.57;;;;;;;-1.88;74.12;92402.97;5050658;28;20273;-78
2024/01/14 08:20:11;;;;;;;25.60;17.87;;;;;;;-1.69;72.65;92402.81;5043126;28;20191;-74
2024/01/14 08:22:39;;;;;;;18.00;16.17;;;;;;;-1.57;72.04;92395.22;5040035;28;20243;-84
2024/01/14 08:25:04;;;;;;;20.30;18.07;;;;;;;-1.87;72.70;92415.56;5052052;28;20197;-80
2024/01/14 08:27:30;;;;;;;21.70;17.43;;;;;;;-1.84;72.49;92425.38;5051413;28;20234;-74
2024/01/14 08:29:55;;;;;;;22.70;18.97;;;;;;;-1.75;71.80;92434.38;5050565;28;20802;-74
2024/01/14 08:32:21;;;;;;;22.23;17.97;;;;;;;-1.84;72.07;92425.38;5051299;28;20225;-74
2024/01/14 08:34:46;;;;;;;23.87;17.33;;;;;;;-1.75;71.64;92429.25;5050332;28;20270;-76
2024/01/14 08:37:12;;;;;;;20.23;17.60;;;;;;;-1.59;70.70;92437.38;5049214;28;20280;-80
2024/01/14 08:39:37;;;;;;;17.73;15.90;;;;;;;-1.70;71.29;92429.38;5046590;28;20280;-83
2024/01/14 08:42:03;;;;;;;21.90;17.20;;;;;;;-1.51;70.34;92437.13;5050333;28;20232;-79
2024/01/14 08:44:28;;;;;;;24.03;18.83;;;;;;;-1.44;70.31;92441.19;5052771;28;20229;-82
2024/01/14 08:46:54;;;;;;;20.63;18.43;;;;;;;-1.36;69.99;92446.03;5051211;28;20233;-82
2024/01/14 08:49:19;;;;;;;20.43;17.23;;;;;;;-1.46;70.45;92438.03;5050119;28;20186;-78
2024/01/14 08:51:45;;;;;;;25.03;17.57;;;;;;;-1.46;71.28;92432.16;5048027;28;20213;-79
2024/01/14 08:54:10;;;;;;;25.40;19.47;;;;;;;-1.24;71.69;92420.50;5047810;28;20253;-79
2024/01/14 08:56:35;;;;;;;21.60;17.63;;;;;;;-1.24;71.76;92425.63;5048329;28;20210;-86
2024/01/14 08:59:01;;;;;;;28.80;19.77;;;;;;;-0.89;68.88;92424.09;5058656;28;20205;-84
2024/01/14 09:01:27;;;;;;;25.40;20.40;;;;;;;-0.88;69.02;92405.16;5056295;28;20286;-79
2024/01/14 09:03:53;;;;;;;34.27;22.03;;;;;;;-0.96;68.80;92402.88;5059865;28;20208;-84
2024/01/14 09:06:18;;;;;;;34.03;21.70;;;;;;;-0.65;67.44;92415.50;5056062;28;20187;-81
2024/01/14 09:08:43;;;;;;;35.07;21.20;;;;;;;-0.86;69.19;92408.28;5060621;28;20213;-79
2024/01/14 09:11:09;;;;;;;24.10;19.60;;;;;;;-0.63;65.96;92411.75;5054206;28;20238;-84
2024/01/14 09:13:35;;;;;;;26.30;20.00;;;;;;;-0.86;67.08;92370.66;5054306;28;20236;-86
2024/01/14 09:16:01;;;;;;;31.57;21.10;;;;;;;-0.44;66.87;92392.00;5057500;28;20221;-83
2024/01/14 09:18:26;;;;;;;28.40;17.97;;;;;;;-0.25;66.36;92427.59;5061833;28;20209;-80
2024/01/14 09:20:52;;;;;;;23.70;19.70;;;;;;;-0.18;66.57;92423.19;5052017;28;20281;-77
2024/01/14 09:23:18;;;;;;;26.70;20.57;;;;;;;-0.20;66.90;92420.06;5054973;28;20379;-83
2024/01/14 09:25:44;;;;;;;25.77;20.80;;;;;;;0.14;65.71;92420.38;5051821;28;20235;-81
2024/01/14 09:28:09;;;;;;;28.50;20.93;;;;;;;0.21;64.53;92433.88;5050019;28;20241;-81
2024/01/14 09:30:35;;;;;;;28.23;20.10;;;;;;;0.20;64.63;92425.41;5056562;28;20178;-82
2024/01/14 09:33:00;;;;;;;30.57;21.57;;;;;;;0.14;64.29;92400.59;5054391;28;20214;-81
2024/01/14 09:35:26;;;;;;;26.33;20.97;;;;;;;0.20;64.40;92420.28;5053199;28;20705;-78
2024/01/14 09:37:51;;;;;;;35.77;23.17;;;;;;;0.07;65.41;92394.81;5056945;28;20205;-81
2024/01/14 09:40:17;;;;;;;29.37;23.00;;;;;;;0.09;65.35;92392.81;5054613;28;20178;-84
2024/01/14 09:42:44;;;;;;;31.07;22.70;;;;;;;-0.15;67.15;92411.69;5050426;28;20224;-82
2024/01/14 09:45:10;;;;;;;33.07;24.33;;;;;;;0.08;65.07;92391.22;5055410;28;20187;-85
2024/01/14 09:47:37;;;;;;;32.37;22.43;;;;;;;0.13;64.95;92399.03;5050367;28;20218;-87
2024/01/14 09:50:03;;;;;;;28.60;21.37;;;;;;;-0.07;65.86;92393.44;5047166;28;20938;-83
2024/01/14 09:52:30;;;;;;;36.20;22.57;;;;;;;-0.03;66.47;92399.66;5049388;28;20237;-86
2024/01/14 09:54:56;;;;;;;25.53;22.00;;;;;;;0.40;68.68;92402.78;5049312;28;20189;-76
2024/01/14 09:57:23;;;;;;;28.73;22.40;;;;;;;0.37;65.69;92399.88;5045973;28;20245;-78
2024/01/14 09:59:50;;;;;;;39.43;23.80;;;;;;;0.10;66.09;92394.34;5049646;28;20194;-73
2024/01/14 10:02:16;;;;;;;32.00;23.07;;;;;;;-0.10;67.10;92396.44;5048932;28;20214;-75
2024/01/14 10:04:42;;;;;;;37.90;23.27;;;;;;;0.27;65.56;92372.16;5049866;28;20228;-74
2024/01/14 10:07:08;;;;;;;32.87;24.10;;;;;;;0.66;64.02;92376.66;5046512;28;20225;-74
2024/01/14 10:09:34;;;;;;;33.80;25.60;;;;;;;0.61;64.91;92371.38;5045896;28;20193;-75
2024/01/14 10:11:59;;;;;;;41.57;26.27;;;;;;;0.79;63.83;92366.16;5041936;28;20232;-74
2024/01/14 10:14:28;;;;;;;28.57;22.47;;;;;;;0.62;64.11;92361.91;5050275;28;20186;-75
2024/01/14 10:17:03;;;;;;;35.67;24.07;;;;;;;0.86;63.67;92383.97;5043894;28;20233;-77
2024/01/14 10:19:29;;;;;;;32.90;22.30;;;;;;;0.34;64.74;92359.22;5044792;28;20205;-76
2024/01/14 10:21:55;;;;;;;37.07;23.83;;;;;;;-0.23;66.66;92335.84;5048244;28;20242;-75
2024/01/14 10:24:24;;;;;;;34.20;23.60;;;;;;;0.66;65.77;92358.66;5046251;28;20217;-75
2024/01/14 10:26:53;;;;;;;28.10;21.23;;;;;;;1.31;62.13;92362.53;5049404;28;20286;-75
2024/01/14 10:29:19;;;;;;;31.70;22.60;;;;;;;1.15;62.05;92355.53;5041842;28;20179;-75
2024/01/14 10:31:44;;;;;;;29.47;22.30;;;;;;;1.13;62.25;92359.38;5047521;28;20264;-76
2024/01/14 10:34:10;;;;;;;36.67;25.47;;;;;;;1.27;62.72;92350.38;5041444;28;20206;-77
2024/01/14 10:36:37;;;;;;;34.50;24.40;;;;;;;1.36;62.20;92356.72;5044601;28;20221;-76
2024/01/14 10:39:03;;;;;;;34.63;25.17;;;;;;;1.58;61.34;92358.44;5046132;28;20224;-75
2024/01/14 10:41:29;;;;;;;38.63;22.03;;;;;;;1.49;60.71;92351.31;5040759;28;20221;-73
2024/01/14 10:43:54;;;;;;;33.23;22.87;;;;;;;1.05;62.08;92345.09;5042885;28;20178;-80
2024/01/14 10:46:22;;;;;;;31.47;23.50;;;;;;;1.44;61.49;92328.84;5049646;28;20190;-75
2024/01/14 10:49:05;;;;;;;41.13;24.57;;;;;;;1.16;63.08;92334.00;5040144;28;20206;-74
2024/01/14 10:51:34;;;;;;;33.83;23.23;;;;;;;1.33;61.50;92324.53;5045647;28;20208;-74
2024/01/14 10:54:09;;;;;;;36.23;24.60;;;;;;;1.17;63.99;92325.25;5047031;28;20217;-74
2024/01/14 10:56:39;;;;;;;32.93;24.30;;;;;;;1.54;61.88;92311.00;5043925;28;20205;-73
2024/01/14 10:59:08;;;;;;;31.83;22.20;;;;;;;1.33;62.35;92298.81;5035226;28;20174;-73
2024/01/14 11:01:40;;;;;;;36.07;23.20;;;;;;;1.76;61.27;92303.41;5037945;28;20198;-74
2024/01/14 11:04:07;;;;;;;35.87;23.13;;;;;;;1.89;60.97;92318.56;5042814;28;20199;-74
2024/01/14 11:06:34;;;;;;;37.70;26.17;;;;;;;2.27;59.39;92310.91;5043925;28;20194;-78
2024/01/14 11:09:00;;;;;;;39.00;25.20;;;;;;;2.26;58.74;92303.41;5046609;28;20241;-75
2024/01/14 11:11:38;;;;;;;37.17;24.47;;;;;;;1.84;60.84;92299.69;5045630;28;20194;-74
2024/01/14 11:14:21;;;;;;;31.97;22.90;;;;;;;1.65;62.57;92306.81;5037458;28;20210;-73